Time;durP1;ratioP1;P1;durP2;ratioP2;P2;SDS_P1;SDS_P2;PMS_P1;PMS_P2;Temp;Humidity;BMP_temperature;BMP_pressure;BME280_temperature;BME280_humidity;BME280_pressure;Samples;Min_cycle;Max_cycle;Signal;HPM_P1;HPM_P2
2023/10/21 00:01:05;;;;;;;1.50;1.43;;;13.50;99.90;;;;;;5099976;28;20428;-80
2023/10/21 00:03:35;;;;;;;2.50;1.30;;;13.50;99.90;;;;;;5098889;28;20444;-81
2023/10/21 00:06:04;;;;;;;2.03;1.80;;;13.50;99.90;;;;;;5097476;28;20517;-81
2023/10/21 00:08:46;;;;;;;1.70;1.60;;;13.40;99.90;;;;;;5097321;28;20526;-81
2023/10/21 00:11:22;;;;;;;2.03;1.80;;;13.30;99.90;;;;;;5096946;28;20448;-81
2023/10/21 00:13:52;;;;;;;1.40;1.30;;;13.30;99.90;;;;;;5098121;28;20952;-81
2023/10/21 00:16:26;;;;;;;1.70;1.60;;;13.30;99.90;;;;;;5097401;28;20472;-81
2023/10/21 00:18:56;;;;;;;1.90;1.70;;;13.30;99.90;;;;;;5097531;28;20459;-80
2023/10/21 00:21:27;;;;;;;1.50;1.40;;;13.20;99.90;;;;;;5098050;28;20456;-80
2023/10/21 00:23:56;;;;;;;1.50;1.40;;;13.50;99.90;;;;;;5097521;28;20458;-81
2023/10/21 00:26:29;;;;;;;2.20;1.37;;;13.10;99.90;;;;;;5098119;28;20460;-81
2023/10/21 00:28:56;;;;;;;1.30;1.20;;;13.50;99.90;;;;;;5099267;28;20450;-83
2023/10/21 00:31:26;;;;;;;1.10;1.10;;;13.60;99.90;;;;;;5100705;28;20725;-80
2023/10/21 00:33:56;;;;;;;1.10;1.00;;;13.60;99.90;;;;;;5101093;28;20539;-79
2023/10/21 00:36:27;;;;;;;0.93;0.93;;;13.90;99.90;;;;;;5101648;28;20972;-81
2023/10/21 00:38:59;;;;;;;0.90;0.90;;;13.70;99.90;;;;;;5103079;28;20447;-79
2023/10/21 00:41:37;;;;;;;0.90;0.90;;;13.80;99.90;;;;;;5099946;28;20512;-80
2023/10/21 00:44:14;;;;;;;1.00;1.00;;;13.80;99.90;;;;;;5098762;28;20478;-83
2023/10/21 00:46:42;;;;;;;0.90;0.90;;;13.80;99.90;;;;;;5100301;28;20467;-80
2023/10/21 00:49:18;;;;;;;1.37;1.20;;;13.80;99.90;;;;;;5105704;28;20432;-81
2023/10/21 00:51:49;;;;;;;0.80;0.80;;;13.90;99.90;;;;;;5109864;28;20448;-82
2023/10/21 00:54:23;;;;;;;0.73;0.73;;;13.60;99.90;;;;;;5112529;28;20492;-83
2023/10/21 00:56:57;;;;;;;1.47;1.20;;;13.90;99.90;;;;;;5112315;28;20517;-82
2023/10/21 00:59:29;;;;;;;0.80;0.80;;;14.00;99.90;;;;;;5112809;28;20506;-81
2023/10/21 01:02:07;;;;;;;1.13;0.83;;;14.00;99.90;;;;;;5112719;28;20471;-82
2023/10/21 01:04:47;;;;;;;0.90;0.90;;;13.90;99.90;;;;;;5111208;28;20452;-81
2023/10/21 01:07:46;;;;;;;1.00;1.00;;;13.90;99.90;;;;;;5106460;28;20476;-80
2023/10/21 01:10:32;;;;;;;1.53;1.00;;;14.00;99.90;;;;;;5072087;28;20476;-81
2023/10/21 01:13:13;;;;;;;0.70;0.70;;;13.90;99.90;;;;;;5096782;28;20948;-80
2023/10/21 01:15:47;;;;;;;1.83;0.87;;;13.90;99.90;;;;;;5097257;28;20467;-81
2023/10/21 01:18:29;;;;;;;0.90;0.90;;;14.00;99.90;;;;;;5101984;28;20455;-81
2023/10/21 01:20:59;;;;;;;0.80;0.80;;;14.20;99.90;;;;;;5104439;28;20469;-81
2023/10/21 01:23:35;;;;;;;2.27;0.80;;;14.00;99.90;;;;;;5106060;28;20424;-81
2023/10/21 01:26:10;;;;;;;0.80;0.80;;;14.10;99.90;;;;;;5107269;28;20452;-79
2023/10/21 01:28:52;;;;;;;0.80;0.80;;;14.30;99.90;;;;;;5108641;28;20574;-80
2023/10/21 01:31:32;;;;;;;0.70;0.70;;;14.00;99.90;;;;;;5109104;28;20454;-81
2023/10/21 01:34:20;;;;;;;1.13;1.00;;;13.80;99.90;;;;;;5111704;28;20443;-82
2023/10/21 01:36:52;;;;;;;0.87;0.87;;;14.10;99.90;;;;;;5106851;28;20491;-82
2023/10/21 01:39:22;;;;;;;0.63;0.63;;;13.80;99.90;;;;;;5105363;28;20444;-80
2023/10/21 01:41:52;;;;;;;0.70;0.70;;;14.10;99.90;;;;;;5103073;28;20512;-81
2023/10/21 01:44:20;;;;;;;1.27;0.90;;;14.10;99.90;;;;;;5101696;28;20864;-81
2023/10/21 01:46:48;;;;;;;0.60;0.60;;;14.10;99.90;;;;;;5102918;28;20821;-78
2023/10/21 01:49:21;;;;;;;0.60;0.60;;;14.10;99.90;;;;;;5098758;28;20782;-79
2023/10/21 01:51:49;;;;;;;0.70;0.70;;;14.20;99.90;;;;;;5098538;28;20451;-79
2023/10/21 01:54:29;;;;;;;0.93;0.83;;;14.10;99.90;;;;;;5098270;28;20428;-78
2023/10/21 01:56:57;;;;;;;1.60;0.57;;;14.10;99.90;;;;;;5098081;28;20459;-80
2023/10/21 01:59:28;;;;;;;0.90;0.90;;;13.80;99.90;;;;;;5098573;28;20451;-80
2023/10/21 02:02:01;;;;;;;2.00;0.80;;;14.20;99.90;;;;;;5101112;28;20436;-82
2023/10/21 02:04:42;;;;;;;0.60;0.60;;;14.20;99.90;;;;;;5110471;28;20454;-82
2023/10/21 02:10:02;;;;;;;0.73;0.73;;;13.90;99.90;;;;;;5103402;28;20452;-81
2023/10/21 02:12:51;;;;;;;1.00;0.60;;;14.10;99.90;;;;;;5102450;28;20483;-83
2023/10/21 02:15:24;;;;;;;0.60;0.60;;;14.10;99.90;;;;;;5101868;28;20448;-82
2023/10/21 02:18:04;;;;;;;0.60;0.60;;;13.80;99.90;;;;;;5103077;28;20468;-81
2023/10/21 02:20:39;;;;;;;0.83;0.60;;;14.10;99.90;;;;;;5105588;28;20443;-81
2023/10/21 02:23:07;;;;;;;0.53;0.53;;;14.10;99.90;;;;;;5112400;28;20446;-81
2023/10/21 02:25:40;;;;;;;0.50;0.50;;;14.20;99.90;;;;;;5118841;28;20500;-82
2023/10/21 02:28:11;;;;;;;0.50;0.50;;;14.20;99.90;;;;;;5115341;28;20480;-81
2023/10/21 02:30:50;;;;;;;0.80;0.50;;;14.40;99.90;;;;;;5115611;28;20432;-82
2023/10/21 02:33:19;;;;;;;1.07;0.87;;;14.20;99.90;;;;;;5112744;28;20443;-82
2023/10/21 02:35:52;;;;;;;0.70;0.70;;;14.20;99.90;;;;;;5107526;28;20495;-83
2023/10/21 02:38:24;;;;;;;0.57;0.57;;;14.40;99.90;;;;;;5111449;28;20467;-82
2023/10/21 02:40:57;;;;;;;2.00;0.63;;;14.10;99.90;;;;;;5111878;28;20432;-81
2023/10/21 02:43:30;;;;;;;1.17;0.97;;;14.10;99.90;;;;;;5111535;28;20444;-83
2023/10/21 02:46:07;;;;;;;3.70;0.60;;;14.00;99.90;;;;;;5112126;28;20446;-83
2023/10/21 02:48:37;;;;;;;0.60;0.60;;;14.00;99.90;;;;;;5111966;28;20503;-83
2023/10/21 02:51:14;;;;;;;0.70;0.70;;;14.00;99.90;;;;;;5109591;28;20512;-83
2023/10/21 02:53:49;;;;;;;0.70;0.70;;;14.00;99.90;;;;;;5100207;28;20444;-82
2023/10/21 02:56:20;;;;;;;0.70;0.70;;;13.90;99.90;;;;;;5100187;28;20451;-83
2023/10/21 02:58:59;;;;;;;0.70;0.70;;;13.90;99.90;;;;;;5100269;28;20908;-84
2023/10/21 03:01:40;;;;;;;0.90;0.90;;;13.80;99.90;;;;;;5100105;28;20477;-84
2023/10/21 03:04:15;;;;;;;1.67;0.90;;;13.80;99.90;;;;;;5102421;28;20432;-81
2023/10/21 03:06:44;;;;;;;1.30;0.80;;;13.80;99.90;;;;;;5100143;28;20473;-83
2023/10/21 03:09:15;;;;;;;0.70;0.70;;;13.70;99.90;;;;;;5099853;28;20486;-82
2023/10/21 03:11:51;;;;;;;0.50;0.50;;;13.70;99.90;;;;;;5099370;28;20455;-82
2023/10/21 03:14:28;;;;;;;1.00;0.70;;;13.70;99.90;;;;;;5100216;28;20451;-81
2023/10/21 03:16:59;;;;;;;0.87;0.50;;;13.70;99.90;;;;;;5100357;28;20494;-81
2023/10/21 03:19:30;;;;;;;0.93;0.70;;;13.90;99.90;;;;;;5099771;28;20454;-81
2023/10/21 03:21:57;;;;;;;0.93;0.60;;;13.90;99.90;;;;;;5099782;28;21027;-81
2023/10/21 03:24:26;;;;;;;0.60;0.60;;;13.90;99.90;;;;;;5100100;28;20446;-83
2023/10/21 03:26:56;;;;;;;0.60;0.60;;;13.60;99.90;;;;;;5101560;28;20468;-83
2023/10/21 03:29:24;;;;;;;0.80;0.73;;;13.60;99.90;;;;;;5103480;28;20771;-82
2023/10/21 03:32:04;;;;;;;0.70;0.70;;;13.50;99.90;;;;;;5104048;28;20452;-82
2023/10/21 03:34:38;;;;;;;15.80;14.30;;;13.50;99.90;;;;;;5104704;28;20473;-82
2023/10/21 03:37:17;;;;;;;0.67;0.67;;;13.50;99.90;;;;;;5102778;28;20467;-83
2023/10/21 03:39:51;;;;;;;1.23;0.90;;;13.50;99.90;;;;;;5102812;28;20440;-81
2023/10/21 03:42:27;;;;;;;0.87;0.70;;;13.40;99.90;;;;;;5104074;28;20513;-82
2023/10/21 03:45:00;;;;;;;0.70;0.70;;;13.40;99.90;;;;;;5104611;28;20479;-81
2023/10/21 03:47:30;;;;;;;0.97;0.70;;;13.40;99.90;;;;;;5103105;28;20464;-82
2023/10/21 03:50:06;;;;;;;0.80;0.80;;;13.50;99.90;;;;;;5102723;28;20538;-83
2023/10/21 03:52:36;;;;;;;0.67;0.67;;;13.40;99.90;;;;;;5104864;28;20463;-82
2023/10/21 03:55:08;;;;;;;0.40;0.40;;;13.30;99.90;;;;;;5107069;28;20486;-81
2023/10/21 03:57:43;;;;;;;1.00;0.80;;;13.00;99.90;;;;;;5104457;28;20478;-83
2023/10/21 04:00:21;;;;;;;0.57;0.57;;;13.20;99.90;;;;;;5104437;28;20623;-82
2023/10/21 04:02:53;;;;;;;1.70;0.67;;;13.20;99.90;;;;;;5105313;28;20507;-82
2023/10/21 04:05:35;;;;;;;1.00;0.80;;;13.40;99.90;;;;;;5104766;28;20463;-83
2023/10/21 04:08:10;;;;;;;1.10;0.77;;;13.10;99.90;;;;;;5100741;28;20563;-82
2023/10/21 04:10:39;;;;;;;0.80;0.80;;;13.10;99.90;;;;;;5100905;28;20470;-81
2023/10/21 04:13:16;;;;;;;0.77;0.77;;;13.10;99.90;;;;;;5099498;28;20478;-82
2023/10/21 04:16:00;;;;;;;1.00;1.00;;;13.10;99.90;;;;;;5099540;28;20484;-83
2023/10/21 04:18:29;;;;;;;3.03;0.80;;;13.00;99.90;;;;;;5102274;28;20454;-82
2023/10/21 04:21:05;;;;;;;0.50;0.50;;;13.10;99.90;;;;;;5103024;28;20455;-82
2023/10/21 04:23:40;;;;;;;0.63;0.63;;;13.30;99.90;;;;;;5102719;28;20452;-82
2023/10/21 04:26:13;;;;;;;0.87;0.60;;;13.40;99.90;;;;;;5103244;28;20451;-82
2023/10/21 04:28:51;;;;;;;1.03;0.77;;;13.50;99.90;;;;;;5101640;28;21003;-81
2023/10/21 04:31:40;;;;;;;0.60;0.60;;;13.70;99.90;;;;;;5098351;28;20452;-82
2023/10/21 04:34:17;;;;;;;0.93;0.93;;;13.50;99.90;;;;;;5098454;28;20455;-82
2023/10/21 04:37:41;;;;;;;1.00;0.90;;;13.50;99.90;;;;;;5098177;28;20479;-82
2023/10/21 04:40:28;;;;;;;0.83;0.80;;;13.50;99.90;;;;;;5098882;28;20467;-83
2023/10/21 04:43:33;;;;;;;2.43;0.73;;;13.40;99.90;;;;;;5099196;28;20539;-82
2023/10/21 04:46:29;;;;;;;1.53;0.80;;;13.50;99.90;;;;;;5104707;28;20448;-82
2023/10/21 04:49:27;;;;;;;0.80;0.80;;;13.10;99.90;;;;;;5101009;28;20559;-82
2023/10/21 04:52:12;;;;;;;;;;;;;;;;;;;;;
2023/10/21 04:55:07;;;;;;;0.97;0.73;;;13.40;99.90;;;;;;5104431;28;20416;-82
2023/10/21 04:57:45;;;;;;;0.93;0.63;;;13.40;99.90;;;;;;5103226;28;20476;-81
2023/10/21 05:00:24;;;;;;;0.70;0.70;;;13.40;99.90;;;;;;5103353;28;20492;-81
2023/10/21 05:03:11;;;;;;;0.80;0.80;;;13.50;99.90;;;;;;5101020;28;20441;-81
2023/10/21 05:06:13;;;;;;;1.50;0.90;;;13.50;99.90;;;;;;5097816;28;20463;-83
2023/10/21 05:09:03;;;;;;;1.57;1.00;;;13.50;99.90;;;;;;5100923;28;20571;-81
2023/10/21 05:12:11;;;;;;;1.80;1.60;;;13.50;99.90;;;;;;5098286;28;20447;-82
2023/10/21 05:15:08;;;;;;;0.93;0.80;;;13.50;99.90;;;;;;5099560;28;20455;-82
2023/10/21 05:21:31;;;;;;;0.90;0.90;;;13.50;99.90;;;;;;5074810;28;20458;-81
2023/10/21 05:24:21;;;;;;;0.70;0.70;;;13.50;99.90;;;;;;5095968;28;20455;-83
2023/10/21 05:33:59;;;;;;;0.70;0.70;;;13.60;99.90;;;;;;5077448;28;20525;-80
2023/10/21 05:36:44;;;;;;;0.70;0.70;;;13.50;99.90;;;;;;5094928;28;20459;-82
2023/10/21 05:39:25;;;;;;;0.90;0.90;;;13.60;99.90;;;;;;5095490;28;20970;-84
2023/10/21 05:42:06;;;;;;;0.73;0.73;;;13.60;99.90;;;;;;5095309;28;20523;-84
2023/10/21 05:44:42;;;;;;;0.73;0.73;;;13.50;99.90;;;;;;5094258;28;20546;-82
2023/10/21 05:47:20;;;;;;;0.87;0.87;;;13.50;99.90;;;;;;5095000;28;20520;-81
2023/10/21 05:50:01;;;;;;;2.83;1.20;;;13.50;99.90;;;;;;5095849;28;20479;-81
2023/10/21 05:52:42;;;;;;;18.93;2.30;;;13.60;99.90;;;;;;5095407;28;20483;-83
2023/10/21 05:55:12;;;;;;;18.60;4.73;;;13.40;99.90;;;;;;5094903;28;20449;-82
2023/10/21 05:57:45;;;;;;;46.73;7.20;;;13.40;99.90;;;;;;5095051;28;20448;-81
2023/10/21 06:00:17;;;;;;;10.00;2.43;;;13.40;99.90;;;;;;5094679;28;21006;-83
2023/10/21 06:02:52;;;;;;;39.30;8.40;;;13.40;99.90;;;;;;5095880;28;20446;-80
2023/10/21 06:05:29;;;;;;;6.00;2.40;;;13.40;99.90;;;;;;5098882;28;20454;-81
2023/10/21 06:08:02;;;;;;;2.73;1.40;;;13.40;99.90;;;;;;5102236;28;20452;-80
2023/10/21 06:10:41;;;;;;;1.30;1.03;;;13.40;99.90;;;;;;5105322;28;20507;-79
2023/10/21 06:13:27;;;;;;;1.23;1.03;;;13.40;99.90;;;;;;5110397;28;20447;-81
2023/10/21 06:16:12;;;;;;;0.70;0.70;;;13.40;99.90;;;;;;5107939;28;20444;-81
2023/10/21 06:18:57;;;;;;;1.50;0.70;;;13.50;99.90;;;;;;5102117;28;20979;-79
2023/10/21 06:21:43;;;;;;;1.67;1.03;;;13.60;99.90;;;;;;5102920;28;20463;-81
2023/10/21 06:24:28;;;;;;;0.93;0.87;;;13.60;99.90;;;;;;5103663;28;20458;-81
2023/10/21 06:27:16;;;;;;;0.93;0.90;;;13.80;99.90;;;;;;5109779;28;20455;-79
2023/10/21 06:30:07;;;;;;;1.50;0.60;;;13.70;99.90;;;;;;5114314;28;20464;-78
2023/10/21 06:32:55;;;;;;;2.33;1.20;;;13.80;99.90;;;;;;5117012;28;20460;-80
2023/10/21 06:35:55;;;;;;;0.80;0.80;;;13.80;99.90;;;;;;5113455;28;20488;-78
2023/10/21 06:39:09;;;;;;;0.80;0.67;;;13.90;99.90;;;;;;5095254;28;20483;-79
2023/10/21 06:42:05;;;;;;;1.43;1.00;;;13.90;99.90;;;;;;5105336;28;20455;-82
2023/10/21 06:44:37;;;;;;;0.73;0.73;;;13.90;99.90;;;;;;5080487;28;20428;-79
2023/10/21 06:47:05;;;;;;;0.90;0.77;;;14.00;99.90;;;;;;5076856;28;20502;-79
2023/10/21 06:49:34;;;;;;;1.13;0.93;;;14.00;99.90;;;;;;5076993;28;21009;-79
2023/10/21 06:52:20;;;;;;;1.60;1.20;;;14.00;99.90;;;;;;5083676;28;20440;-81
2023/10/21 06:54:56;;;;;;;7.13;6.53;;;14.00;99.90;;;;;;5083510;28;20510;-80
2023/10/21 06:57:28;;;;;;;4.10;3.63;;;14.00;99.90;;;;;;5094482;28;20489;-79
2023/10/21 06:59:57;;;;;;;3.53;3.33;;;14.00;99.90;;;;;;5101454;28;20888;-80
2023/10/21 07:02:26;;;;;;;4.20;3.90;;;14.40;99.90;;;;;;5098944;28;20443;-80
2023/10/21 07:05:02;;;;;;;1.43;1.33;;;14.30;99.90;;;;;;5097782;28;20789;-80
2023/10/21 07:07:37;;;;;;;0.80;0.80;;;14.50;99.90;;;;;;5100291;28;20815;-80
2023/10/21 07:10:07;;;;;;;1.17;0.80;;;14.70;99.90;;;;;;5105212;28;20483;-81
2023/10/21 07:12:48;;;;;;;1.37;0.93;;;14.80;99.90;;;;;;5108761;28;20482;-81
2023/10/21 07:15:22;;;;;;;0.80;0.80;;;14.90;99.90;;;;;;5101011;28;20847;-81
2023/10/21 07:17:52;;;;;;;1.50;1.23;;;15.10;99.90;;;;;;5100218;28;21014;-81
2023/10/21 07:20:31;;;;;;;1.27;1.20;;;15.20;99.90;;;;;;5100566;28;20440;-80
2023/10/21 07:23:00;;;;;;;1.17;1.10;;;15.40;99.90;;;;;;5100707;28;20491;-81
2023/10/21 07:25:28;;;;;;;1.57;1.47;;;15.60;99.90;;;;;;5100396;28;20470;-80
2023/10/21 07:28:05;;;;;;;1.27;1.27;;;15.70;99.90;;;;;;5098411;28;20471;-81
2023/10/21 07:30:44;;;;;;;1.47;1.37;;;15.80;99.90;;;;;;5097495;28;20475;-80
2023/10/21 07:33:36;;;;;;;1.10;0.80;;;15.90;99.90;;;;;;5099687;28;20451;-78
2023/10/21 07:36:11;;;;;;;0.80;0.80;;;16.00;99.90;;;;;;5098566;28;20448;-81
2023/10/21 07:38:39;;;;;;;1.37;0.80;;;16.20;99.90;;;;;;5101957;28;20510;-78
2023/10/21 07:41:16;;;;;;;0.70;0.70;;;16.20;99.90;;;;;;5099307;28;20469;-79
2023/10/21 07:43:55;;;;;;;0.80;0.80;;;16.40;99.90;;;;;;5099686;28;20473;-79
2023/10/21 07:46:30;;;;;;;1.63;1.20;;;16.50;99.90;;;;;;5099194;28;20475;-80
2023/10/21 07:49:06;;;;;;;0.70;0.70;;;16.80;99.90;;;;;;5104680;28;20471;-80
2023/10/21 07:51:34;;;;;;;0.87;0.83;;;17.00;99.90;;;;;;5088019;28;20448;-79
2023/10/21 07:54:08;;;;;;;0.70;0.70;;;17.00;99.90;;;;;;5089266;28;20448;-81
2023/10/21 07:56:43;;;;;;;0.87;0.80;;;17.10;99.90;;;;;;5091684;28;20468;-82
2023/10/21 07:59:22;;;;;;;0.70;0.70;;;17.00;99.90;;;;;;5091353;28;20441;-81
2023/10/21 08:02:01;;;;;;;0.73;0.70;;;16.90;99.90;;;;;;5111827;28;20506;-83
2023/10/21 08:04:35;;;;;;;1.80;0.93;;;17.00;99.90;;;;;;5110123;28;20450;-82
2023/10/21 08:07:08;;;;;;;1.93;0.70;;;17.20;99.90;;;;;;5107440;28;20486;-79
2023/10/21 08:09:45;;;;;;;0.70;0.70;;;17.30;99.90;;;;;;5102063;28;20467;-78
2023/10/21 08:12:35;;;;;;;0.83;0.80;;;17.40;99.90;;;;;;5102409;28;20444;-79
2023/10/21 08:15:16;;;;;;;1.00;0.57;;;17.60;99.90;;;;;;5107533;28;20463;-80
2023/10/21 08:17:53;;;;;;;0.60;0.60;;;17.60;99.90;;;;;;5102690;28;20475;-80
2023/10/21 08:20:24;;;;;;;1.50;0.67;;;17.70;99.90;;;;;;5098925;28;20451;-78
2023/10/21 08:22:58;;;;;;;1.10;0.70;;;17.80;99.90;;;;;;5098030;28;20451;-80
2023/10/21 08:25:36;;;;;;;0.83;0.70;;;18.00;99.90;;;;;;5108906;28;20436;-81
2023/10/21 08:28:13;;;;;;;0.90;0.70;;;18.20;99.90;;;;;;5109175;28;20456;-81
2023/10/21 08:30:44;;;;;;;0.50;0.50;;;18.30;99.90;;;;;;5108188;28;20467;-80
2023/10/21 08:33:19;;;;;;;0.80;0.40;;;18.30;99.90;;;;;;5108656;28;20447;-80
2023/10/21 08:35:52;;;;;;;2.50;0.93;;;18.30;99.90;;;;;;5107136;28;20455;-82
2023/10/21 08:38:22;;;;;;;0.80;0.37;;;18.40;99.90;;;;;;5107475;28;20464;-80
2023/10/21 08:40:53;;;;;;;0.70;0.53;;;17.70;99.90;;;;;;5106157;28;20436;-79
2023/10/21 08:43:24;;;;;;;0.53;0.53;;;17.90;99.90;;;;;;5105707;28;20459;-81
2023/10/21 08:45:59;;;;;;;1.53;0.50;;;18.00;99.90;;;;;;5108322;28;20455;-81
2023/10/21 08:48:28;;;;;;;1.00;0.60;;;18.10;99.90;;;;;;5090523;28;20444;-82
2023/10/21 08:51:01;;;;;;;0.80;0.63;;;17.80;99.90;;;;;;5098725;28;20494;-81
2023/10/21 08:53:28;;;;;;;1.03;0.47;;;17.80;99.90;;;;;;5111173;28;20424;-81
2023/10/21 08:55:57;;;;;;;0.70;0.60;;;18.00;99.90;;;;;;5106335;28;20454;-80
2023/10/21 08:58:28;;;;;;;1.50;0.60;;;18.20;99.90;;;;;;5097961;28;20459;-79
2023/10/21 09:00:59;;;;;;;0.60;0.60;;;17.90;99.90;;;;;;5098723;28;20472;-78
2023/10/21 09:03:30;;;;;;;1.60;1.17;;;17.80;99.90;;;;;;5096848;28;20444;-80
2023/10/21 09:06:11;;;;;;;0.60;0.60;;;17.60;99.90;;;;;;5098838;28;20852;-80
2023/10/21 09:08:47;;;;;;;1.10;0.70;;;17.60;99.90;;;;;;5104967;28;20482;-80
2023/10/21 09:11:20;;;;;;;0.50;0.50;;;17.80;99.90;;;;;;5106489;28;20471;-83
2023/10/21 09:13:49;;;;;;;0.80;0.60;;;17.60;99.90;;;;;;5108971;28;20539;-78
2023/10/21 09:16:23;;;;;;;1.10;0.70;;;17.40;99.90;;;;;;5107550;28;20452;-83
2023/10/21 09:19:04;;;;;;;1.23;0.70;;;17.20;99.90;;;;;;5108345;28;20420;-81
2023/10/21 09:21:43;;;;;;;0.87;0.60;;;17.40;99.90;;;;;;5107758;28;20511;-81
2023/10/21 09:24:15;;;;;;;0.63;0.63;;;17.40;99.90;;;;;;5105343;28;20451;-79
2023/10/21 09:26:47;;;;;;;0.80;0.40;;;17.50;99.90;;;;;;5108629;28;20484;-80
2023/10/21 09:29:22;;;;;;;0.70;0.70;;;17.70;99.90;;;;;;5107295;28;20471;-82
2023/10/21 09:31:59;;;;;;;1.33;0.53;;;18.00;99.90;;;;;;5101866;28;20436;-79
2023/10/21 09:34:32;;;;;;;1.80;0.83;;;18.00;99.90;;;;;;5103877;28;20535;-80
2023/10/21 09:37:02;;;;;;;0.90;0.70;;;18.10;99.90;;;;;;5106215;28;20463;-79
2023/10/21 09:39:43;;;;;;;2.23;0.60;;;18.70;99.90;;;;;;5103727;28;20535;-82
2023/10/21 09:42:15;;;;;;;0.73;0.60;;;19.00;99.90;;;;;;5107195;28;20440;-78
2023/10/21 09:44:47;;;;;;;0.60;0.60;;;19.20;99.90;;;;;;5110025;28;20568;-82
2023/10/21 09:47:22;;;;;;;0.87;0.83;;;19.00;99.90;;;;;;5103421;28;20465;-80
2023/10/21 09:49:54;;;;;;;0.53;0.53;;;19.00;99.90;;;;;;5103054;28;20482;-84
2023/10/21 09:52:31;;;;;;;0.57;0.57;;;19.00;99.90;;;;;;5098849;28;20439;-80
2023/10/21 09:55:08;;;;;;;0.70;0.70;;;18.90;99.90;;;;;;5102570;28;20511;-85
2023/10/21 09:57:37;;;;;;;1.50;0.77;;;19.00;99.90;;;;;;5100707;28;20455;-82
2023/10/21 10:00:09;;;;;;;1.50;0.63;;;18.90;99.90;;;;;;5103787;28;20451;-81
2023/10/21 10:02:38;;;;;;;0.57;0.57;;;18.70;99.90;;;;;;5102971;28;20451;-82
2023/10/21 10:05:11;;;;;;;1.77;0.77;;;18.70;99.90;;;;;;5103574;28;20457;-82
2023/10/21 10:07:40;;;;;;;0.60;0.60;;;18.90;99.90;;;;;;5105591;28;20481;-82
2023/10/21 10:10:12;;;;;;;1.80;0.90;;;19.00;99.90;;;;;;5104865;28;20488;-82
2023/10/21 10:12:45;;;;;;;0.83;0.80;;;19.40;99.90;;;;;;5109791;28;20440;-84
2023/10/21 10:15:31;;;;;;;1.50;0.80;;;19.50;99.90;;;;;;5111569;28;20471;-81
2023/10/21 10:18:01;;;;;;;1.93;0.70;;;19.50;99.90;;;;;;5105284;28;20505;-80
2023/10/21 10:20:32;;;;;;;0.40;0.40;;;19.60;99.90;;;;;;5105008;28;20507;-81
2023/10/21 10:23:07;;;;;;;1.07;0.63;;;19.80;99.90;;;;;;5107925;28;20432;-81
2023/10/21 10:25:37;;;;;;;1.57;0.80;;;19.80;99.90;;;;;;5100929;28;20458;-81
2023/10/21 10:28:13;;;;;;;1.40;0.70;;;19.80;99.90;;;;;;5107043;28;20481;-81
2023/10/21 10:30:43;;;;;;;2.30;1.00;;;20.00;99.90;;;;;;5106228;28;20471;-80
2023/10/21 10:33:17;;;;;;;1.20;0.67;;;20.00;99.90;;;;;;5104007;28;20451;-80
2023/10/21 10:35:48;;;;;;;1.23;0.90;;;20.20;99.90;;;;;;5101086;28;20443;-80
2023/10/21 10:38:24;;;;;;;1.17;0.80;;;19.80;99.90;;;;;;5101359;28;20456;-82
2023/10/21 10:40:55;;;;;;;1.03;0.40;;;19.80;99.90;;;;;;5101131;28;20446;-81
2023/10/21 10:43:26;;;;;;;0.40;0.40;;;19.70;99.90;;;;;;5101823;28;20593;-79
2023/10/21 10:45:57;;;;;;;0.80;0.43;;;19.50;99.90;;;;;;5102492;28;20502;-81
2023/10/21 10:48:34;;;;;;;1.30;0.60;;;19.60;99.90;;;;;;5103589;28;20455;-79
2023/10/21 10:51:10;;;;;;;1.37;0.60;;;19.30;99.90;;;;;;5107095;28;20501;-84
2023/10/21 10:53:39;;;;;;;0.97;0.70;;;19.20;99.90;;;;;;5107251;28;20475;-80
2023/10/21 10:56:14;;;;;;;2.00;0.53;;;19.00;99.90;;;;;;5105712;28;20443;-82
2023/10/21 10:58:50;;;;;;;0.97;0.97;;;19.00;99.90;;;;;;5109085;28;20471;-83
2023/10/21 11:01:25;;;;;;;0.83;0.80;;;18.80;99.90;;;;;;5107946;28;20432;-81
2023/10/21 11:04:01;;;;;;;1.10;0.80;;;18.80;99.90;;;;;;5109651;28;20442;-82
2023/10/21 11:06:35;;;;;;;2.20;0.80;;;18.70;99.90;;;;;;5109141;28;20475;-84
2023/10/21 11:09:04;;;;;;;0.97;0.93;;;18.90;99.90;;;;;;5107370;28;20459;-82
2023/10/21 11:11:45;;;;;;;1.23;0.90;;;19.00;99.90;;;;;;5104941;28;20468;-81
2023/10/21 11:14:16;;;;;;;1.07;0.93;;;19.30;99.90;;;;;;5099526;28;20452;-80
2023/10/21 11:16:49;;;;;;;1.67;0.87;;;19.20;99.90;;;;;;5097225;28;20486;-80
2023/10/21 11:19:21;;;;;;;1.80;0.73;;;19.20;99.90;;;;;;5097755;28;20451;-82
2023/10/21 11:21:52;;;;;;;1.33;0.70;;;19.30;99.90;;;;;;5096254;28;20452;-80
2023/10/21 11:24:26;;;;;;;2.00;0.93;;;19.40;99.90;;;;;;5099940;28;21013;-83
2023/10/21 11:26:54;;;;;;;0.70;0.70;;;19.40;99.90;;;;;;5101534;28;21042;-84
2023/10/21 11:29:23;;;;;;;1.00;0.70;;;19.30;99.90;;;;;;5104459;28;20520;-79
2023/10/21 11:32:04;;;;;;;0.80;0.80;;;19.20;99.90;;;;;;5084275;28;20555;-82
2023/10/21 11:34:42;;;;;;;0.60;0.53;;;18.90;99.90;;;;;;5094297;28;20537;-82
2023/10/21 11:37:34;;;;;;;1.13;0.83;;;18.90;99.90;;;;;;5102219;28;20520;-82
2023/10/21 11:40:21;;;;;;;2.40;0.70;;;19.00;99.90;;;;;;5098651;28;20473;-79
2023/10/21 11:43:04;;;;;;;1.40;0.80;;;18.90;99.90;;;;;;5092997;28;20462;-80
2023/10/21 11:45:40;;;;;;;2.93;0.70;;;18.80;99.90;;;;;;5098140;28;20872;-80
2023/10/21 11:48:15;;;;;;;2.00;1.30;;;18.60;99.90;;;;;;5098593;28;20481;-81
2023/10/21 11:50:51;;;;;;;1.67;1.10;;;18.60;99.90;;;;;;5098511;28;20525;-81
2023/10/21 11:53:24;;;;;;;2.40;0.97;;;18.80;99.90;;;;;;5099141;28;20954;-83
2023/10/21 12:13:42;;;;;;;0.80;0.80;;;19.40;99.90;;;;;;5082839;28;20432;-82
2023/10/21 12:16:31;;;;;;;1.03;0.70;;;19.60;99.90;;;;;;5105531;28;20448;-81
2023/10/21 12:34:49;;;;;;;0.90;0.80;;;20.40;99.90;;;;;;5108537;28;20475;-84
2023/10/21 12:37:45;;;;;;;1.13;0.80;;;20.30;99.90;;;;;;5101266;28;20460;-85
2023/10/21 12:40:37;;;;;;;0.73;0.60;;;20.10;99.90;;;;;;5104247;28;20478;-83
2023/10/21 12:43:24;;;;;;;0.60;0.57;;;19.70;99.90;;;;;;5098998;28;20448;-81
2023/10/21 12:46:14;;;;;;;3.13;0.80;;;19.40;99.90;;;;;;5100797;28;20455;-82
2023/10/21 12:49:00;;;;;;;1.27;0.60;;;19.20;99.90;;;;;;5106164;28;20452;-82
2023/10/21 12:51:47;;;;;;;0.93;0.93;;;19.30;99.90;;;;;;5112454;28;20448;-85
2023/10/21 12:54:24;;;;;;;2.13;1.00;;;18.90;99.90;;;;;;5105371;28;20531;-82
2023/10/21 12:57:27;;;;;;;1.20;0.80;;;19.10;99.90;;;;;;5099450;28;20479;-83
2023/10/21 13:00:11;;;;;;;2.90;0.83;;;19.30;99.90;;;;;;5095289;28;20469;-84
2023/10/21 13:03:01;;;;;;;;;;;;;;;;;;;;;
2023/10/21 13:05:56;;;;;;;1.13;0.80;;;19.40;99.90;;;;;;5107736;28;20427;-84
2023/10/21 13:08:57;;;;;;;1.07;1.00;;;19.20;99.90;;;;;;5106640;28;20478;-86
2023/10/21 13:11:50;;;;;;;0.80;0.80;;;18.80;99.90;;;;;;5107203;28;20476;-85
2023/10/21 13:14:28;;;;;;;0.70;0.70;;;18.90;99.90;;;;;;5109897;28;20443;-83
2023/10/21 13:17:12;;;;;;;1.10;0.87;;;18.90;99.90;;;;;;5109883;28;20530;-85
2023/10/21 13:19:51;;;;;;;0.60;0.60;;;18.90;99.90;;;;;;5105563;28;20493;-81
2023/10/21 13:22:38;;;;;;;;;;;;;;;;;;;;;
2023/10/21 13:25:17;;;;;;;1.17;0.97;;;18.80;99.90;;;;;;5101153;28;20506;-84
2023/10/21 13:28:06;;;;;;;1.07;0.77;;;19.20;99.90;;;;;;5107490;28;20456;-84
2023/10/21 14:15:40;;;;;;;1.07;0.90;;;19.20;99.90;;;;;;5007382;28;20478;-83
2023/10/21 14:18:30;;;;;;;0.80;0.80;;;19.10;99.90;;;;;;5021664;28;20541;-79
2023/10/21 14:21:08;;;;;;;0.70;0.57;;;19.00;99.90;;;;;;5074721;28;20440;-82
2023/10/21 14:24:05;;;;;;;1.93;1.10;;;18.70;99.90;;;;;;5087346;28;20506;-80
2023/10/21 14:26:37;;;;;;;0.70;0.70;;;18.70;99.90;;;;;;5083790;28;20469;-80
2023/10/21 14:29:11;;;;;;;1.90;0.83;;;18.80;99.90;;;;;;5073153;28;20457;-83
2023/10/21 14:31:42;;;;;;;1.07;0.73;;;18.60;99.90;;;;;;5077865;28;20511;-82
2023/10/21 14:34:18;;;;;;;0.73;0.73;;;18.40;99.90;;;;;;5078605;28;20467;-80
2023/10/21 14:36:46;;;;;;;2.30;0.87;;;18.50;99.90;;;;;;5057412;28;20461;-81
2023/10/21 14:39:14;;;;;;;0.93;0.60;;;18.50;99.90;;;;;;5075563;28;20437;-82
2023/10/21 14:41:41;;;;;;;1.57;0.97;;;18.60;99.90;;;;;;5063283;28;20466;-80
2023/10/21 14:44:08;;;;;;;2.67;1.20;;;18.50;99.90;;;;;;5079332;28;20496;-81
2023/10/21 14:46:42;;;;;;;1.20;1.00;;;18.60;99.90;;;;;;5080685;28;20475;-85
2023/10/21 14:49:14;;;;;;;1.00;1.00;;;18.60;99.90;;;;;;5079205;28;20443;-82
2023/10/21 14:51:48;;;;;;;1.43;1.07;;;18.50;99.90;;;;;;5082094;28;20507;-83
2023/10/21 14:54:16;;;;;;;1.50;1.00;;;18.50;99.90;;;;;;5078931;28;20447;-81
2023/10/21 14:56:43;;;;;;;1.67;1.00;;;18.40;99.90;;;;;;5079818;28;20461;-82
2023/10/21 14:59:11;;;;;;;0.97;0.70;;;18.50;99.90;;;;;;5075407;28;20499;-82
2023/10/21 15:01:40;;;;;;;0.90;0.80;;;18.40;99.90;;;;;;5079094;28;20456;-83
2023/10/21 15:04:08;;;;;;;1.17;0.60;;;18.40;99.90;;;;;;5071204;28;21001;-82
2023/10/21 15:06:35;;;;;;;2.33;0.70;;;18.30;99.90;;;;;;5059201;28;20477;-84
2023/10/21 15:09:03;;;;;;;1.33;0.80;;;18.20;99.90;;;;;;5073395;28;20455;-81
2023/10/21 15:11:30;;;;;;;3.40;1.30;;;18.20;99.90;;;;;;5077857;28;20484;-82